createdAt,value
2016-12-13T00:00:18.777Z,0
2016-12-13T00:01:17.894Z,0
2016-12-13T00:02:18.186Z,0
2016-12-13T00:03:18.256Z,0
2016-12-13T00:04:18.785Z,0
2016-12-13T00:05:18.909Z,0
2016-12-13T00:06:18.360Z,0
2016-12-13T00:07:18.940Z,0
2016-12-13T00:08:19.808Z,0
2016-12-13T00:09:18.832Z,0
2016-12-13T00:10:19.336Z,0
2016-12-13T00:11:18.159Z,0
2016-12-13T00:12:18.618Z,0
2016-12-13T00:13:19.591Z,0
2016-12-13T00:14:18.779Z,0
2016-12-13T00:15:18.488Z,0
2016-12-13T00:16:18.500Z,0
2016-12-13T00:17:18.977Z,0
2016-12-13T00:18:18.211Z,0
2016-12-13T00:19:18.828Z,0
2016-12-13T00:20:18.683Z,0
2016-12-13T00:21:18.085Z,0
2016-12-13T00:22:18.610Z,0
2016-12-13T00:23:19.102Z,0
2016-12-13T00:24:18.491Z,0
2016-12-13T00:25:19.531Z,0
2016-12-13T00:26:18.965Z,0
2016-12-13T00:27:18.438Z,0
2016-12-13T00:28:18.930Z,0
2016-12-13T00:29:19.702Z,0
2016-12-13T00:30:18.521Z,0
2016-12-13T00:31:19.501Z,0
2016-12-13T00:32:18.979Z,0
2016-12-13T00:33:19.203Z,0
2016-12-13T00:34:19.130Z,0
2016-12-13T00:35:18.807Z,0
2016-12-13T00:36:19.027Z,0
2016-12-13T00:37:19.074Z,0
2016-12-13T00:38:19.030Z,0
2016-12-13T00:39:18.821Z,0
2016-12-13T00:40:19.428Z,0
2016-12-13T00:41:18.811Z,0
2016-12-13T00:42:19.327Z,0
2016-12-13T00:43:18.589Z,0
2016-12-13T00:44:18.763Z,0
2016-12-13T00:45:19.215Z,0
2016-12-13T00:46:19.353Z,0
2016-12-13T00:47:19.271Z,0
2016-12-13T00:48:18.594Z,0
2016-12-13T00:49:19.540Z,0
2016-12-13T00:50:18.738Z,0
2016-12-13T00:51:19.272Z,0
2016-12-13T00:52:19.226Z,0
2016-12-13T00:53:18.884Z,0
2016-12-13T00:54:18.661Z,0
2016-12-13T00:55:18.881Z,0
2016-12-13T00:56:19.109Z,0
2016-12-13T00:57:19.220Z,0
2016-12-13T00:58:19.005Z,0
2016-12-13T00:59:19.531Z,0
2016-12-13T01:00:19.062Z,0
2016-12-13T01:01:18.837Z,0
2016-12-13T01:02:18.910Z,0
2016-12-13T01:03:19.532Z,0
2016-12-13T01:04:19.380Z,0
2016-12-13T01:05:19.724Z,0
2016-12-13T01:06:19.615Z,0
2016-12-13T01:07:19.247Z,0
2016-12-13T01:08:20.058Z,0
2016-12-13T01:09:20.428Z,0
2016-12-13T01:10:19.369Z,0
2016-12-13T01:11:19.580Z,0
2016-12-13T01:12:22.268Z,0
2016-12-13T01:13:20.542Z,0
2016-12-13T01:14:19.476Z,0
2016-12-13T01:15:19.593Z,0
2016-12-13T01:16:19.977Z,0
2016-12-13T01:17:19.266Z,0
2016-12-13T01:18:19.657Z,0
2016-12-13T01:19:19.649Z,0
2016-12-13T01:20:19.446Z,0
2016-12-13T01:21:20.010Z,0
2016-12-13T01:22:19.347Z,0
2016-12-13T01:23:19.596Z,0
2016-12-13T01:24:19.720Z,0
2016-12-13T01:25:19.377Z,0
2016-12-13T01:26:19.556Z,0
2016-12-13T01:27:20.038Z,0
2016-12-13T01:28:19.951Z,0
2016-12-13T01:29:19.655Z,0
2016-12-13T01:30:19.916Z,0
2016-12-13T01:31:19.280Z,0
2016-12-13T01:32:19.253Z,0
2016-12-13T01:33:19.424Z,0
2016-12-13T01:34:19.859Z,0
2016-12-13T01:35:19.511Z,0
2016-12-13T01:36:19.842Z,0
2016-12-13T01:37:19.265Z,0
2016-12-13T01:38:20.207Z,0
2016-12-13T01:39:21.274Z,0
2016-12-13T01:40:20.100Z,0
2016-12-13T01:41:19.570Z,0
2016-12-13T01:42:20.718Z,0
2016-12-13T01:43:20.345Z,0
2016-12-13T01:44:19.684Z,0
2016-12-13T01:45:20.147Z,0
2016-12-13T01:46:19.244Z,0
2016-12-13T01:47:19.563Z,0
2016-12-13T01:48:21.238Z,0
2016-12-13T01:49:20.315Z,0
2016-12-13T01:50:20.348Z,0
2016-12-13T01:51:19.775Z,0
2016-12-13T01:52:20.493Z,0
2016-12-13T01:53:20.772Z,0
2016-12-13T01:54:19.825Z,0
2016-12-13T01:55:20.422Z,0
2016-12-13T01:56:20.029Z,0
2016-12-13T01:57:19.807Z,0
2016-12-13T01:58:20.407Z,0
2016-12-13T01:59:20.665Z,0
2016-12-13T02:00:20.035Z,0
2016-12-13T02:01:20.174Z,0
2016-12-13T02:02:19.721Z,0
2016-12-13T02:03:20.748Z,0
2016-12-13T02:04:20.225Z,0
2016-12-13T02:05:19.921Z,0
2016-12-13T02:06:20.689Z,0
2016-12-13T02:07:20.655Z,0
2016-12-13T02:08:20.299Z,0
2016-12-13T02:09:20.056Z,0
2016-12-13T02:10:19.979Z,0
2016-12-13T02:11:19.868Z,0
2016-12-13T02:12:20.447Z,0
2016-12-13T02:13:20.300Z,0
2016-12-13T02:14:20.421Z,0
2016-12-13T02:15:20.599Z,0
2016-12-13T02:16:20.762Z,0
2016-12-13T02:17:22.651Z,0
2016-12-13T02:18:21.964Z,0
2016-12-13T02:19:20.169Z,0
2016-12-13T02:20:20.549Z,0
2016-12-13T02:21:21.443Z,0
2016-12-13T02:22:21.368Z,0
2016-12-13T02:23:21.452Z,0
2016-12-13T02:24:20.619Z,0
2016-12-13T02:25:20.636Z,0
2016-12-13T02:26:20.644Z,0
2016-12-13T02:27:21.592Z,0
2016-12-13T02:28:20.468Z,0
2016-12-13T02:29:21.706Z,0
2016-12-13T02:30:20.490Z,0
2016-12-13T02:31:20.390Z,0
2016-12-13T02:32:21.693Z,0
2016-12-13T02:33:21.106Z,0
2016-12-13T02:34:21.790Z,0
2016-12-13T02:35:21.412Z,0
2016-12-13T02:36:20.219Z,0
2016-12-13T02:37:21.966Z,0
2016-12-13T02:38:21.070Z,0
2016-12-13T02:39:20.512Z,0
2016-12-13T02:40:20.964Z,0
2016-12-13T02:41:21.172Z,0
2016-12-13T02:42:20.778Z,0
2016-12-13T02:43:20.834Z,0
2016-12-13T02:44:20.376Z,0
2016-12-13T02:45:20.649Z,0
2016-12-13T02:46:21.427Z,0
2016-12-13T02:47:20.967Z,0
2016-12-13T02:48:21.293Z,0
2016-12-13T02:49:20.948Z,0
2016-12-13T02:50:20.752Z,0
2016-12-13T02:51:21.769Z,0
2016-12-13T02:52:21.020Z,0
2016-12-13T02:53:21.099Z,0
2016-12-13T02:54:20.827Z,0
2016-12-13T02:55:21.369Z,0
2016-12-13T02:56:21.568Z,0
2016-12-13T02:57:21.788Z,0
2016-12-13T02:58:21.162Z,0
2016-12-13T02:59:21.220Z,0
2016-12-13T03:00:21.324Z,0
2016-12-13T03:01:20.841Z,0
2016-12-13T03:02:21.267Z,0
2016-12-13T03:03:21.469Z,0
2016-12-13T03:04:20.750Z,0
2016-12-13T03:05:21.744Z,0
2016-12-13T03:06:21.164Z,0
2016-12-13T03:07:21.950Z,0
2016-12-13T03:08:22.226Z,0
2016-12-13T03:09:21.521Z,0
2016-12-13T03:10:20.735Z,0
2016-12-13T03:11:21.257Z,0
2016-12-13T03:12:21.222Z,0
2016-12-13T03:13:21.370Z,0
2016-12-13T03:14:21.389Z,0
2016-12-13T03:15:21.859Z,0
2016-12-13T03:16:20.819Z,0
2016-12-13T03:17:21.823Z,0
2016-12-13T03:18:21.976Z,0
2016-12-13T03:19:21.297Z,0
2016-12-13T03:20:21.691Z,0
2016-12-13T03:21:20.980Z,0
2016-12-13T03:22:21.445Z,0
2016-12-13T03:23:21.498Z,0
2016-12-13T03:24:21.118Z,0
2016-12-13T03:25:21.774Z,0
2016-12-13T03:26:21.766Z,0
2016-12-13T03:27:21.443Z,0
2016-12-13T03:28:21.376Z,0
2016-12-13T03:29:21.332Z,0
2016-12-13T03:30:21.291Z,0
2016-12-13T03:31:21.401Z,0
2016-12-13T03:32:22.346Z,0
2016-12-13T03:33:21.521Z,0
2016-12-13T03:34:21.654Z,0
2016-12-13T03:35:20.842Z,0
2016-12-13T03:36:21.817Z,0
2016-12-13T03:37:21.457Z,0
2016-12-13T03:38:21.404Z,0
2016-12-13T03:39:21.527Z,0
2016-12-13T03:40:21.914Z,0
2016-12-13T03:41:22.486Z,0
2016-12-13T03:42:22.062Z,0
2016-12-13T03:43:21.750Z,0
2016-12-13T03:44:21.679Z,0
2016-12-13T03:45:22.404Z,0
2016-12-13T03:46:21.673Z,0
2016-12-13T03:47:22.861Z,0
2016-12-13T03:48:21.645Z,0
2016-12-13T03:49:21.442Z,0
2016-12-13T03:50:21.281Z,0
2016-12-13T03:51:22.416Z,0
2016-12-13T03:52:21.624Z,0
2016-12-13T03:53:21.423Z,0
2016-12-13T03:54:21.987Z,0
2016-12-13T03:55:22.609Z,0
2016-12-13T03:56:21.527Z,0
2016-12-13T03:57:22.029Z,0
2016-12-13T03:58:22.328Z,0
2016-12-13T03:59:22.041Z,0
2016-12-13T04:00:21.544Z,0
2016-12-13T04:01:21.409Z,0
2016-12-13T04:02:21.697Z,0
2016-12-13T04:03:21.668Z,0
2016-12-13T04:04:22.517Z,0
2016-12-13T04:05:21.903Z,0
2016-12-13T04:06:21.600Z,0
2016-12-13T04:07:21.996Z,0
2016-12-13T04:08:21.926Z,0
2016-12-13T04:09:22.151Z,0
2016-12-13T04:10:22.016Z,0
2016-12-13T04:11:22.237Z,0
2016-12-13T04:12:22.174Z,0
2016-12-13T04:13:21.459Z,0
2016-12-13T04:14:22.623Z,0
2016-12-13T04:15:21.694Z,0
2016-12-13T04:16:22.455Z,0
2016-12-13T04:17:21.939Z,0
2016-12-13T04:18:23.076Z,0
2016-12-13T04:19:22.829Z,0
2016-12-13T04:20:22.249Z,0
2016-12-13T04:21:21.738Z,0
2016-12-13T04:22:21.948Z,0
2016-12-13T04:23:22.626Z,0
2016-12-13T04:24:22.727Z,0
2016-12-13T04:25:22.675Z,0
2016-12-13T04:26:22.090Z,0
2016-12-13T04:27:22.632Z,0
2016-12-13T04:28:22.019Z,0
2016-12-13T04:29:23.061Z,0
2016-12-13T04:30:22.242Z,0
2016-12-13T04:31:22.407Z,0
2016-12-13T04:32:22.849Z,0
2016-12-13T04:33:22.960Z,0
2016-12-13T04:34:22.382Z,0
2016-12-13T04:35:22.359Z,0
2016-12-13T04:36:22.643Z,0
2016-12-13T04:37:21.987Z,0
2016-12-13T04:38:22.582Z,0
2016-12-13T04:39:22.501Z,0
2016-12-13T04:40:22.426Z,0
2016-12-13T04:41:22.400Z,0
2016-12-13T04:42:22.609Z,0
2016-12-13T04:43:22.404Z,0
2016-12-13T04:44:22.378Z,0
2016-12-13T04:45:22.700Z,0
2016-12-13T04:46:22.464Z,0
2016-12-13T04:47:22.965Z,0
2016-12-13T04:48:22.391Z,0
2016-12-13T04:49:22.360Z,0
2016-12-13T04:50:22.091Z,0
2016-12-13T04:51:22.134Z,0
2016-12-13T04:52:22.541Z,0
2016-12-13T04:53:22.111Z,0
2016-12-13T04:54:23.144Z,0
2016-12-13T04:55:22.721Z,0
2016-12-13T04:56:23.500Z,0
2016-12-13T04:57:22.250Z,0
2016-12-13T04:58:22.745Z,0
2016-12-13T04:59:23.611Z,0
2016-12-13T05:00:22.922Z,0
2016-12-13T05:01:22.724Z,0
2016-12-13T05:02:22.134Z,0
2016-12-13T05:03:22.661Z,0
2016-12-13T05:04:22.585Z,0
2016-12-13T05:05:24.581Z,0
2016-12-13T05:06:25.864Z,0
2016-12-13T05:07:23.718Z,0
2016-12-13T05:08:24.955Z,0
2016-12-13T05:09:23.927Z,0
2016-12-13T05:10:24.007Z,0
2016-12-13T05:11:24.293Z,0
2016-12-13T05:12:26.941Z,0
2016-12-13T05:13:26.523Z,0
2016-12-13T05:14:24.704Z,0
2016-12-13T05:15:24.105Z,0
2016-12-13T05:16:25.401Z,0
2016-12-13T05:17:24.533Z,0
2016-12-13T05:18:26.275Z,0
2016-12-13T05:19:24.593Z,0
2016-12-13T05:20:25.491Z,0
2016-12-13T05:21:25.859Z,0
2016-12-13T05:22:24.787Z,0
2016-12-13T05:23:27.391Z,0
2016-12-13T05:24:27.227Z,0
2016-12-13T05:25:24.826Z,0
2016-12-13T05:26:25.054Z,0
2016-12-13T05:27:25.900Z,0
2016-12-13T05:28:25.794Z,0
2016-12-13T05:29:26.056Z,0
2016-12-13T05:30:24.947Z,0
2016-12-13T05:31:24.552Z,0
2016-12-13T05:32:27.378Z,0
2016-12-13T05:33:25.463Z,0
2016-12-13T05:34:25.425Z,0
2016-12-13T05:35:25.621Z,0
2016-12-13T05:36:26.260Z,0
2016-12-13T05:37:24.602Z,0
2016-12-13T05:38:25.258Z,0
2016-12-13T05:39:25.270Z,0
2016-12-13T05:40:26.421Z,0
2016-12-13T05:41:24.858Z,0
2016-12-13T05:42:25.311Z,0
2016-12-13T05:43:25.669Z,0
2016-12-13T05:44:24.640Z,0
2016-12-13T05:45:24.262Z,0
2016-12-13T05:46:26.147Z,0
2016-12-13T05:47:24.814Z,0
2016-12-13T05:48:27.187Z,0
2016-12-13T05:49:24.695Z,0
2016-12-13T05:50:26.717Z,0
2016-12-13T05:51:27.509Z,0
2016-12-13T05:52:25.517Z,0
2016-12-13T05:53:24.566Z,0
2016-12-13T05:54:27.924Z,0
2016-12-13T05:55:24.725Z,0
2016-12-13T05:56:24.670Z,0
2016-12-13T05:57:25.911Z,0
2016-12-13T05:58:27.133Z,0
2016-12-13T05:59:25.708Z,0
2016-12-13T06:00:26.356Z,0
2016-12-13T06:01:25.665Z,0
2016-12-13T06:02:26.345Z,0
2016-12-13T06:03:24.843Z,0
2016-12-13T06:04:25.396Z,0
2016-12-13T06:05:25.312Z,0
2016-12-13T06:06:25.892Z,0
2016-12-13T06:07:25.711Z,0
2016-12-13T06:08:25.563Z,0
2016-12-13T06:09:26.241Z,0
2016-12-13T06:10:24.976Z,0
2016-12-13T06:11:24.832Z,0
2016-12-13T06:12:24.476Z,0
2016-12-13T06:13:27.382Z,0
2016-12-13T06:14:25.496Z,0
2016-12-13T06:15:25.916Z,0
2016-12-13T06:16:26.576Z,0
2016-12-13T06:17:27.582Z,0
2016-12-13T06:18:29.051Z,0
2016-12-13T06:19:27.410Z,0
2016-12-13T06:20:27.019Z,0
2016-12-13T06:21:24.965Z,0
2016-12-13T06:22:26.214Z,0
2016-12-13T06:23:25.824Z,0
2016-12-13T06:24:25.774Z,0
2016-12-13T06:25:24.928Z,0
2016-12-13T06:26:26.349Z,0
2016-12-13T06:27:25.645Z,0
2016-12-13T06:28:27.579Z,0
2016-12-13T06:29:27.977Z,0
2016-12-13T06:30:25.926Z,0
2016-12-13T06:31:26.644Z,0
2016-12-13T06:32:27.298Z,0
2016-12-13T06:33:25.939Z,0
2016-12-13T06:34:27.569Z,0
2016-12-13T06:35:27.112Z,0
2016-12-13T06:36:27.733Z,0
2016-12-13T06:37:27.428Z,0
2016-12-13T06:38:26.969Z,0
2016-12-13T06:39:29.513Z,0
2016-12-13T06:40:25.323Z,0
2016-12-13T06:41:25.221Z,0
2016-12-13T06:42:24.568Z,0
2016-12-13T06:43:24.819Z,0
2016-12-13T06:44:26.662Z,0
2016-12-13T06:45:27.082Z,4
2016-12-13T06:46:24.617Z,4
2016-12-13T06:47:25.368Z,0
2016-12-13T06:48:26.431Z,4
2016-12-13T06:49:25.529Z,4
2016-12-13T06:50:25.494Z,4
2016-12-13T06:51:27.070Z,4
2016-12-13T06:52:24.850Z,4
2016-12-13T06:53:25.709Z,8
2016-12-13T06:54:25.595Z,8
2016-12-13T06:55:26.757Z,12
2016-12-13T06:56:30.533Z,12
2016-12-13T06:57:35.331Z,12
2016-12-13T06:58:29.419Z,12
2016-12-13T06:59:27.388Z,16
2016-12-13T07:00:26.460Z,20
2016-12-13T07:01:27.492Z,20
2016-12-13T07:02:27.964Z,24
2016-12-13T07:03:27.045Z,32
2016-12-13T07:04:29.102Z,36
2016-12-13T07:05:30.912Z,40
2016-12-13T07:06:27.882Z,48
2016-12-13T07:09:29.556Z,68
2016-12-13T07:12:26.623Z,96
2016-12-13T07:13:27.084Z,108
2016-12-13T07:14:28.489Z,120
2016-12-13T07:15:28.484Z,128
2016-12-13T07:16:29.029Z,140
2016-12-13T07:17:28.074Z,148
2016-12-13T07:18:27.224Z,164
2016-12-13T07:19:29.010Z,176
2016-12-13T07:20:26.542Z,192
2016-12-13T07:21:26.890Z,208
2016-12-13T07:22:28.301Z,224
2016-12-13T07:23:27.061Z,248
2016-12-13T07:25:27.261Z,292
2016-12-13T07:26:27.393Z,316
2016-12-13T07:27:27.752Z,340
2016-12-13T07:28:26.324Z,368
2016-12-13T07:29:26.644Z,400
2016-12-13T07:30:28.687Z,428
2016-12-13T07:31:29.104Z,460
2016-12-13T07:32:26.821Z,492
2016-12-13T07:40:27.363Z,816
2016-12-13T07:43:28.345Z,920
2016-12-13T07:44:30.065Z,956
2016-12-13T07:45:35.037Z,996
2016-12-13T07:46:27.695Z,1028
2016-12-13T07:47:30.551Z,1072
2016-12-13T07:48:30.440Z,1108
2016-12-13T07:49:30.000Z,1144
2016-12-13T07:50:30.537Z,1176
2016-12-13T07:51:28.142Z,1216
2016-12-13T07:52:35.813Z,1256
2016-12-13T07:53:27.586Z,1284
2016-12-13T07:54:27.521Z,1320
2016-12-13T07:55:28.820Z,1348
2016-12-13T07:56:31.170Z,1356
2016-12-13T07:57:30.977Z,1352
2016-12-13T07:58:27.687Z,1368
2016-12-13T07:59:30.935Z,1424
2016-12-13T08:00:30.857Z,1488
2016-12-13T08:01:28.141Z,1528
2016-12-13T08:02:27.903Z,1548
2016-12-13T08:03:28.909Z,1548
2016-12-13T08:04:29.875Z,1556
2016-12-13T08:05:32.243Z,1580
2016-12-13T08:06:29.690Z,1604
2016-12-13T08:07:26.744Z,1612
2016-12-13T08:08:29.569Z,1616
2016-12-13T08:09:28.409Z,1628
2016-12-13T08:10:28.568Z,1664
2016-12-13T08:11:28.424Z,1712
2016-12-13T08:12:28.208Z,1768
2016-12-13T08:13:26.438Z,1808
2016-12-13T08:14:27.718Z,1840
2016-12-13T08:15:28.386Z,1872
2016-12-13T08:16:27.789Z,1908
2016-12-13T08:17:27.502Z,1940
2016-12-13T08:18:27.391Z,1984
2016-12-13T08:23:29.101Z,2200
2016-12-13T08:25:28.603Z,2300
2016-12-13T08:29:25.869Z,2484
2016-12-13T08:30:26.034Z,2524
2016-12-13T08:31:25.970Z,2560
2016-12-13T08:32:26.327Z,2588
2016-12-13T08:33:25.968Z,2612
2016-12-13T08:34:26.110Z,2656
2016-12-13T08:35:25.614Z,2704
2016-12-13T08:36:27.213Z,2772
2016-12-13T08:37:25.452Z,2852
2016-12-13T08:38:26.702Z,2952
2016-12-13T08:39:26.066Z,3060
2016-12-13T08:40:26.089Z,3164
2016-12-13T08:41:26.154Z,3268
2016-12-13T08:42:25.948Z,3356
2016-12-13T08:43:26.115Z,3428
2016-12-13T08:44:25.850Z,3492
2016-12-13T08:45:25.905Z,3560
2016-12-13T08:46:27.001Z,3620
2016-12-13T08:47:26.658Z,3704
2016-12-13T08:48:25.955Z,3804
2016-12-13T08:49:26.727Z,3920
2016-12-13T08:50:26.570Z,4000
2016-12-13T08:51:25.535Z,4024
2016-12-13T08:52:25.869Z,4036
2016-12-13T08:53:26.184Z,4064
2016-12-13T08:54:25.791Z,4112
2016-12-13T08:55:26.746Z,4180
2016-12-13T08:56:26.423Z,4256
2016-12-13T08:57:25.666Z,4308
2016-12-13T08:58:26.107Z,4288
2016-12-13T08:59:26.742Z,4280
2016-12-13T09:00:26.271Z,4280
2016-12-13T09:01:26.880Z,4252
2016-12-13T09:02:26.022Z,4220
2016-12-13T09:03:25.941Z,4232
2016-12-13T09:04:25.521Z,4304
2016-12-13T09:05:26.250Z,4420
2016-12-13T09:06:25.899Z,4516
2016-12-13T09:07:27.971Z,4632
2016-12-13T09:08:26.139Z,4764
2016-12-13T09:09:27.288Z,4916
2016-12-13T09:10:50.459Z,5104
2016-12-13T09:13:25.472Z,5464
2016-12-13T09:14:27.137Z,5656
2016-12-13T09:15:27.576Z,5824
2016-12-13T09:16:27.642Z,5988
2016-12-13T09:17:26.696Z,6160
2016-12-13T09:18:26.417Z,6352
2016-12-13T09:19:26.167Z,6548
2016-12-13T09:20:26.768Z,6744
2016-12-13T09:21:27.111Z,6952
2016-12-13T09:22:27.561Z,7148
2016-12-13T09:23:26.275Z,7308
2016-12-13T09:24:26.568Z,7408
2016-12-13T09:25:26.376Z,7476
2016-12-13T09:26:26.443Z,7552
2016-12-13T09:27:28.016Z,7620
2016-12-13T09:28:26.952Z,7684
2016-12-13T09:29:26.476Z,7748
2016-12-13T09:30:27.120Z,7740
2016-12-13T09:31:27.100Z,7756
2016-12-13T09:32:26.369Z,7756
2016-12-13T09:33:27.873Z,7776
2016-12-13T09:34:26.857Z,7804
2016-12-13T09:35:27.150Z,7832
2016-12-13T09:36:26.235Z,7828
2016-12-13T09:37:27.244Z,7800
2016-12-13T09:38:27.095Z,7760
2016-12-13T09:39:27.341Z,7736
2016-12-13T09:40:26.345Z,7712
2016-12-13T09:41:26.427Z,7708
2016-12-13T09:42:26.497Z,7740
2016-12-13T09:43:27.193Z,7740
2016-12-13T09:44:26.861Z,7740
2016-12-13T09:45:26.442Z,7752
2016-12-13T09:46:27.835Z,7824
2016-12-13T09:47:27.589Z,7832
2016-12-13T09:48:26.704Z,7804
2016-12-13T09:49:27.157Z,7828
2016-12-13T09:50:27.569Z,7868
2016-12-13T09:51:27.184Z,7876
2016-12-13T09:52:27.941Z,7888
2016-12-13T09:53:27.089Z,7908
2016-12-13T09:54:26.759Z,7960
2016-12-13T09:55:26.852Z,8036
2016-12-13T09:56:27.422Z,8128
2016-12-13T09:57:27.414Z,8240
2016-12-13T09:58:27.157Z,8356
2016-12-13T09:59:26.819Z,8484
2016-12-13T10:00:27.354Z,8588
2016-12-13T10:01:30.823Z,8668
2016-12-13T10:02:27.049Z,8728
2016-12-13T10:03:27.351Z,8796
2016-12-13T10:04:27.697Z,8864
2016-12-13T10:05:27.686Z,8884
2016-12-13T10:06:28.011Z,8824
2016-12-13T10:07:27.997Z,8736
2016-12-13T10:08:31.562Z,8660
2016-12-13T10:09:36.208Z,8616
2016-12-13T10:11:30.170Z,8636
2016-12-13T10:12:28.989Z,8656
2016-12-13T10:13:31.198Z,8688
2016-12-13T10:14:28.557Z,8708
2016-12-13T10:15:30.176Z,8728
2016-12-13T10:16:30.102Z,8744
2016-12-13T10:17:27.659Z,8748
2016-12-13T10:18:34.421Z,8740
2016-12-13T10:19:29.259Z,8736
2016-12-13T10:20:46.183Z,8728
2016-12-13T10:21:32.447Z,8720
2016-12-13T10:22:35.646Z,8700
2016-12-13T10:23:30.198Z,8716
2016-12-13T10:24:29.504Z,8812
2016-12-13T10:25:30.493Z,8968
2016-12-13T10:27:31.604Z,9292
2016-12-13T10:28:33.802Z,9400
2016-12-13T10:29:30.958Z,9520
2016-12-13T10:30:28.564Z,9692
2016-12-13T10:31:29.019Z,9884
2016-12-13T10:32:27.547Z,10060
2016-12-13T10:33:27.860Z,10188
2016-12-13T10:34:27.679Z,10244
2016-12-13T10:35:27.546Z,10252
2016-12-13T10:36:27.629Z,10220
2016-12-13T10:37:28.282Z,10188
2016-12-13T10:38:27.459Z,10168
2016-12-13T10:39:28.109Z,10128
2016-12-13T10:40:27.901Z,10068
2016-12-13T10:41:27.389Z,9992
2016-12-13T10:42:27.653Z,9932
2016-12-13T10:43:27.752Z,9880
2016-12-13T10:44:27.954Z,9804
2016-12-13T10:45:27.591Z,9696
2016-12-13T10:46:27.783Z,9592
2016-12-13T10:47:27.403Z,9492
2016-12-13T10:48:28.101Z,9364
2016-12-13T10:49:27.801Z,9172
2016-12-13T10:50:27.905Z,8916
2016-12-13T10:51:27.371Z,8644
2016-12-13T10:52:28.738Z,8424
2016-12-13T10:53:27.470Z,8300
2016-12-13T10:54:28.276Z,8248
2016-12-13T10:55:27.934Z,8264
2016-12-13T10:56:28.227Z,8284
2016-12-13T10:57:27.933Z,8316
2016-12-13T10:58:28.078Z,8320
2016-12-13T10:59:28.772Z,8328
2016-12-13T11:00:28.834Z,8260
2016-12-13T11:01:27.727Z,8140
2016-12-13T11:02:28.084Z,7972
2016-12-13T11:03:28.073Z,7776
2016-12-13T11:04:28.206Z,7624
2016-12-13T11:05:29.012Z,7524
2016-12-13T11:06:28.417Z,7480
2016-12-13T11:07:27.988Z,7496
2016-12-13T11:08:28.767Z,7504
2016-12-13T11:09:28.024Z,7480
2016-12-13T11:10:27.843Z,7424
2016-12-13T11:11:28.094Z,7356
2016-12-13T11:12:27.908Z,7304
2016-12-13T11:13:28.374Z,7232
2016-12-13T11:14:28.116Z,7144
2016-12-13T11:15:27.748Z,7040
2016-12-13T11:16:27.869Z,6884
2016-12-13T11:17:28.258Z,6668
2016-12-13T11:18:27.595Z,6436
2016-12-13T11:19:28.279Z,6208
2016-12-13T11:20:28.297Z,5992
2016-12-13T11:21:28.337Z,5768
2016-12-13T11:22:28.032Z,5616
2016-12-13T11:23:27.988Z,5552
2016-12-13T11:24:28.094Z,5544
2016-12-13T11:25:28.738Z,5544
2016-12-13T11:26:28.713Z,5512
2016-12-13T11:27:27.832Z,5484
2016-12-13T11:28:28.195Z,5472
2016-12-13T11:29:28.708Z,5480
2016-12-13T11:30:28.237Z,5452
2016-12-13T11:31:28.047Z,5388
2016-12-13T11:32:28.344Z,5356
2016-12-13T11:33:28.903Z,5352
2016-12-13T11:34:28.531Z,5408
2016-12-13T11:35:27.971Z,5516
2016-12-13T11:36:28.942Z,5652
2016-12-13T11:37:28.275Z,5776
2016-12-13T11:38:28.992Z,5900
2016-12-13T11:39:28.455Z,5988
2016-12-13T11:40:28.116Z,6024
2016-12-13T11:41:28.042Z,6012
2016-12-13T11:42:29.065Z,5952
2016-12-13T11:43:28.990Z,5832
2016-12-13T11:44:28.696Z,5692
2016-12-13T11:45:28.325Z,5564
2016-12-13T11:46:28.161Z,5476
2016-12-13T11:47:28.808Z,5428
2016-12-13T11:48:28.449Z,5404
2016-12-13T11:49:28.913Z,5388
2016-12-13T11:50:28.543Z,5396
2016-12-13T11:51:28.707Z,5436
2016-12-13T11:52:29.695Z,5476
2016-12-13T11:53:28.284Z,5488
2016-12-13T11:54:29.933Z,5472
2016-12-13T11:55:29.521Z,5424
2016-12-13T11:56:28.694Z,5380
2016-12-13T11:57:28.709Z,5332
2016-12-13T11:58:28.221Z,5284
2016-12-13T11:59:29.209Z,5236
2016-12-13T12:00:28.663Z,5176
2016-12-13T12:01:28.788Z,5140
2016-12-13T12:02:29.679Z,5132
2016-12-13T12:03:29.297Z,5124
2016-12-13T12:04:28.609Z,5108
2016-12-13T12:05:28.875Z,5064
2016-12-13T12:06:29.519Z,5012
2016-12-13T12:07:29.005Z,4952
2016-12-13T12:08:28.462Z,4888
2016-12-13T12:09:29.066Z,4824
2016-12-13T12:10:28.649Z,4768
2016-12-13T12:11:29.234Z,4712
2016-12-13T12:12:30.359Z,4652
2016-12-13T12:13:28.797Z,4588
2016-12-13T12:14:29.277Z,4528
2016-12-13T12:15:29.238Z,4500
2016-12-13T12:16:28.937Z,4504
2016-12-13T12:17:30.192Z,4508
2016-12-13T12:18:28.502Z,4528
2016-12-13T12:19:29.424Z,4552
2016-12-13T12:20:29.631Z,4556
2016-12-13T12:21:30.439Z,4536
2016-12-13T12:22:30.638Z,4520
2016-12-13T12:23:29.698Z,4528
2016-12-13T12:24:28.705Z,4556
2016-12-13T12:25:28.892Z,4604
2016-12-13T12:26:29.124Z,4672
2016-12-13T12:27:29.700Z,4696
2016-12-13T12:28:28.678Z,4676
2016-12-13T12:29:29.067Z,4624
2016-12-13T12:30:30.339Z,4544
2016-12-13T12:31:28.807Z,4420
2016-12-13T12:32:29.245Z,4280
2016-12-13T12:33:30.398Z,4208
2016-12-13T12:34:30.437Z,4176
2016-12-13T12:35:29.094Z,4140
2016-12-13T12:36:29.421Z,4092
2016-12-13T12:37:29.196Z,4028
2016-12-13T12:38:29.857Z,3928
2016-12-13T12:39:29.244Z,3772
2016-12-13T12:40:29.084Z,3460
2016-12-13T12:41:30.069Z,3116
2016-12-13T12:42:30.296Z,2888
2016-12-13T12:43:29.161Z,2732
2016-12-13T12:44:30.011Z,2596
2016-12-13T12:45:31.109Z,2504
2016-12-13T12:46:29.602Z,2460
2016-12-13T12:47:29.520Z,2400
2016-12-13T12:48:29.511Z,2312
2016-12-13T12:49:29.718Z,2248
2016-12-13T12:50:29.906Z,2236
2016-12-13T12:51:30.125Z,2200
2016-12-13T12:52:30.419Z,2144
2016-12-13T12:53:30.841Z,2100
2016-12-13T12:54:29.542Z,2060
2016-12-13T12:55:30.064Z,2020
2016-12-13T12:56:30.540Z,1968
2016-12-13T12:57:29.787Z,1904
2016-12-13T12:58:30.579Z,1848
2016-12-13T12:59:30.338Z,1812
2016-12-13T13:00:30.563Z,1780
2016-12-13T13:01:29.390Z,1740
2016-12-13T13:02:30.313Z,1728
2016-12-13T13:03:29.541Z,1716
2016-12-13T13:04:29.557Z,1684
2016-12-13T13:05:29.783Z,1628
2016-12-13T13:06:30.152Z,1584
2016-12-13T13:07:31.432Z,1604
2016-12-13T13:08:30.705Z,1624
2016-12-13T13:09:29.822Z,1612
2016-12-13T13:10:29.641Z,1604
2016-12-13T13:11:30.228Z,1592
2016-12-13T13:12:30.263Z,1576
2016-12-13T13:13:29.759Z,1572
2016-12-13T13:14:29.905Z,1564
2016-12-13T13:15:30.188Z,1532
2016-12-13T13:16:29.687Z,1500
2016-12-13T13:17:29.982Z,1468
2016-12-13T13:18:30.384Z,1456
2016-12-13T13:19:30.357Z,1456
2016-12-13T13:20:30.349Z,1452
2016-12-13T13:21:30.950Z,1464
2016-12-13T13:22:30.195Z,1472
2016-12-13T13:23:29.793Z,1468
2016-12-13T13:24:30.554Z,1456
2016-12-13T13:25:30.641Z,1432
2016-12-13T13:26:29.757Z,1424
2016-12-13T13:27:30.149Z,1428
2016-12-13T13:28:30.903Z,1452
2016-12-13T13:29:29.643Z,1488
2016-12-13T13:30:29.789Z,1528
2016-12-13T13:31:30.060Z,1564
2016-12-13T13:32:29.859Z,1592
2016-12-13T13:33:30.460Z,1616
2016-12-13T13:34:29.753Z,1640
2016-12-13T13:35:30.245Z,1656
2016-12-13T13:36:30.029Z,1668
2016-12-13T13:37:30.705Z,1636
2016-12-13T13:38:30.023Z,1596
2016-12-13T13:39:30.429Z,1580
2016-12-13T13:40:30.302Z,1560
2016-12-13T13:41:30.650Z,1544
2016-12-13T13:42:30.450Z,1536
2016-12-13T13:43:30.780Z,1528
2016-12-13T13:44:30.351Z,1516
2016-12-13T13:45:30.479Z,1496
2016-12-13T13:46:29.940Z,1484
2016-12-13T13:47:30.723Z,1488
2016-12-13T13:48:30.107Z,1512
2016-12-13T13:49:31.212Z,1520
2016-12-13T13:50:30.949Z,1516
2016-12-13T13:51:30.949Z,1508
2016-12-13T13:52:31.395Z,1476
2016-12-13T13:53:30.717Z,1456
2016-12-13T13:54:30.171Z,1428
2016-12-13T13:55:31.200Z,1412
2016-12-13T13:56:31.115Z,1408
2016-12-13T13:57:30.882Z,1416
2016-12-13T13:58:30.464Z,1436
2016-12-13T13:59:31.777Z,1444
2016-12-13T14:00:30.794Z,1416
2016-12-13T14:01:31.588Z,1368
2016-12-13T14:02:30.929Z,1328
2016-12-13T14:03:30.688Z,1284
2016-12-13T14:04:30.948Z,1220
2016-12-13T14:05:30.546Z,1180
2016-12-13T14:06:31.434Z,1140
2016-12-13T14:07:30.850Z,1120
2016-12-13T14:08:30.655Z,1088
2016-12-13T14:09:30.427Z,1060
2016-12-13T14:10:30.401Z,1020
2016-12-13T14:11:31.990Z,972
2016-12-13T14:12:31.150Z,952
2016-12-13T14:13:31.820Z,944
2016-12-13T14:14:30.836Z,956
2016-12-13T14:15:32.839Z,960
2016-12-13T14:16:31.105Z,976
2016-12-13T14:17:31.526Z,1000
2016-12-13T14:18:31.058Z,1012
2016-12-13T14:19:31.694Z,1020
2016-12-13T14:20:30.490Z,1008
2016-12-13T14:21:31.665Z,1000
2016-12-13T14:22:31.579Z,992
2016-12-13T14:23:33.615Z,988
2016-12-13T14:24:31.104Z,980
2016-12-13T14:25:30.713Z,948
2016-12-13T14:26:31.146Z,900
2016-12-13T14:27:31.052Z,864